createdAt,value
2023-05-02T00:10:08.244Z,13.44
2023-05-02T00:20:29.618Z,13.47
2023-05-02T00:30:51.013Z,13.39
2023-05-02T00:41:12.475Z,13.27
2023-05-02T00:51:34.311Z,13.07
2023-05-02T01:02:05.039Z,12.93
2023-05-02T01:12:28.997Z,12.75
2023-05-02T01:22:51.454Z,12.64
2023-05-02T01:33:15.034Z,12.49
2023-05-02T01:43:38.030Z,12.30
2023-05-02T01:54:05.760Z,12.09
2023-05-02T02:04:28.514Z,11.63
2023-05-02T02:14:56.588Z,11.44
2023-05-02T02:25:18.406Z,11.30
2023-05-02T02:35:44.493Z,11.27
2023-05-02T02:46:17.091Z,11.09
2023-05-02T02:56:40.336Z,10.93
2023-05-02T03:07:01.893Z,10.78
2023-05-02T03:17:25.597Z,10.61
2023-05-02T03:27:48.519Z,10.52
2023-05-02T03:38:10.217Z,10.43
2023-05-02T03:48:31.620Z,10.34
2023-05-02T03:58:53.062Z,10.30
2023-05-02T04:09:14.401Z,10.29
2023-05-02T04:19:35.771Z,10.29
2023-05-02T04:29:57.441Z,10.18
2023-05-02T04:40:18.870Z,10.11
2023-05-02T04:50:40.206Z,10.04
2023-05-02T05:01:02.125Z,10.06
2023-05-02T05:11:23.593Z,9.88
2023-05-02T05:21:44.931Z,9.84
2023-05-02T05:32:07.033Z,9.92
2023-05-02T05:42:28.474Z,9.76
2023-05-02T05:52:49.830Z,9.71
2023-05-02T06:03:11.474Z,9.62
2023-05-02T06:13:32.893Z,9.69
2023-05-02T06:23:54.294Z,9.68
2023-05-02T06:34:15.776Z,9.64
2023-05-02T06:44:37.126Z,9.76
2023-05-02T06:54:58.541Z,9.92
2023-05-02T07:05:19.918Z,10.00
2023-05-02T07:15:41.560Z,9.95
2023-05-02T07:26:05.581Z,10.03
2023-05-02T07:36:28.045Z,10.16
2023-05-02T07:46:49.556Z,10.40
2023-05-02T07:57:12.206Z,10.61
2023-05-02T08:07:35.311Z,10.59
2023-05-02T08:17:56.724Z,10.71
2023-05-02T08:28:18.623Z,11.01
2023-05-02T08:38:40.256Z,10.81
2023-05-02T08:49:02.676Z,10.79
2023-05-02T08:59:24.063Z,10.76
2023-05-02T09:09:45.620Z,11.17
2023-05-02T09:20:07.382Z,11.33
2023-05-02T09:30:28.790Z,11.38
2023-05-02T09:40:54.526Z,11.36
2023-05-02T09:51:17.171Z,11.90
2023-05-02T10:01:38.663Z,11.85
2023-05-02T10:12:04.935Z,11.93
2023-05-02T10:22:26.940Z,11.85
2023-05-02T10:32:49.366Z,12.26
2023-05-02T10:43:14.835Z,12.08
2023-05-02T10:53:36.986Z,11.91
2023-05-02T11:03:59.408Z,11.84
2023-05-02T11:14:41.558Z,11.68
2023-05-02T11:25:03.616Z,11.84
2023-05-02T11:35:31.305Z,12.22
2023-05-02T11:45:53.402Z,12.18
2023-05-02T11:56:14.976Z,12.12
2023-05-02T12:06:36.480Z,12.24
2023-05-02T12:16:58.544Z,11.93
2023-05-02T12:27:20.015Z,11.68
2023-05-02T12:37:41.637Z,11.75
2023-05-02T12:48:17.250Z,12.20
2023-05-02T12:58:42.108Z,12.29
2023-05-02T13:09:03.503Z,12.19
2023-05-02T13:19:24.899Z,12.18
2023-05-02T13:29:46.328Z,12.14
2023-05-02T13:40:08.292Z,12.07
2023-05-02T13:50:29.746Z,12.09
2023-05-02T14:00:51.225Z,12.28
2023-05-02T14:11:12.700Z,12.34
2023-05-02T14:21:34.060Z,12.21
2023-05-02T14:31:55.494Z,12.05
2023-05-02T14:42:16.973Z,12.14
2023-05-02T14:52:38.432Z,12.35
2023-05-02T15:02:59.947Z,12.52
2023-05-02T15:13:21.464Z,12.42
2023-05-02T15:23:42.846Z,12.20
2023-05-02T15:34:04.227Z,12.26
2023-05-02T15:44:26.497Z,12.35
2023-05-02T15:54:47.918Z,12.15
2023-05-02T16:05:09.413Z,12.22
2023-05-02T16:15:31.080Z,12.12
2023-05-02T16:25:59.032Z,12.04
2023-05-02T16:36:20.690Z,12.29
2023-05-02T16:46:42.225Z,12.53
2023-05-02T16:57:03.940Z,12.59
2023-05-02T17:07:25.511Z,12.27
2023-05-02T17:17:46.899Z,11.86
2023-05-02T17:28:08.356Z,11.84
2023-05-02T17:38:31.507Z,11.75
2023-05-02T17:48:52.877Z,11.61
2023-05-02T17:59:59.993Z,11.48
2023-05-02T18:10:21.798Z,11.29
2023-05-02T18:20:43.299Z,11.19
2023-05-02T18:31:04.919Z,11.05
2023-05-02T18:41:26.568Z,10.89
2023-05-02T18:51:48.074Z,10.74
2023-05-02T19:02:09.490Z,10.53
2023-05-02T19:12:30.933Z,10.37
2023-05-02T19:22:57.734Z,10.33
2023-05-02T19:33:24.601Z,10.22
2023-05-02T19:43:45.997Z,10.17
2023-05-02T19:54:07.522Z,10.09
2023-05-02T20:04:29.020Z,9.93
2023-05-02T20:14:50.498Z,9.79
2023-05-02T20:25:11.863Z,9.73
2023-05-02T20:35:33.298Z,9.62
2023-05-02T20:45:55.989Z,9.47
2023-05-02T20:56:17.490Z,9.31
2023-05-02T21:06:39.019Z,9.29
2023-05-02T21:17:00.493Z,9.19
2023-05-02T21:27:22.897Z,9.10
2023-05-02T21:37:44.407Z,9.10
2023-05-02T21:48:05.831Z,9.13
2023-05-02T21:58:28.224Z,9.06
2023-05-02T22:08:49.565Z,8.97
2023-05-02T22:19:11.602Z,8.86
2023-05-02T22:29:33.165Z,8.79
2023-05-02T22:39:54.579Z,8.70
2023-05-02T22:50:15.985Z,8.68
2023-05-02T23:00:37.395Z,8.73
2023-05-02T23:10:58.766Z,8.77
2023-05-02T23:21:20.290Z,8.69
2023-05-02T23:31:41.822Z,8.67
2023-05-02T23:42:03.830Z,8.67
2023-05-02T23:52:25.309Z,8.66
